createdAt,value
2017-10-07T00:00:19.518Z,2.78
2017-10-07T00:02:47.670Z,2.78
2017-10-07T00:05:15.275Z,3.10
2017-10-07T00:07:43.570Z,2.85
2017-10-07T00:10:11.522Z,2.58
2017-10-07T00:12:39.970Z,3.05
2017-10-07T00:15:08.024Z,2.40
2017-10-07T00:17:36.296Z,2.70
2017-10-07T00:20:04.877Z,3.10
2017-10-07T00:22:32.763Z,2.65
2017-10-07T00:25:01.105Z,3.00
2017-10-07T00:27:29.098Z,3.30
2017-10-07T00:29:57.367Z,3.08
2017-10-07T00:32:25.558Z,2.67
2017-10-07T00:34:53.500Z,3.03
2017-10-07T00:37:21.573Z,3.15
2017-10-07T00:39:50.428Z,3.30
2017-10-07T00:42:18.354Z,2.90
2017-10-07T00:44:46.418Z,3.60
2017-10-07T00:47:14.632Z,3.75
2017-10-07T00:49:44.463Z,3.83
2017-10-07T00:52:12.836Z,3.67
2017-10-07T00:54:40.854Z,4.32
2017-10-07T00:57:08.695Z,5.68
2017-10-07T00:59:36.794Z,4.20
2017-10-07T01:02:05.062Z,3.95
2017-10-07T01:04:33.021Z,3.55
2017-10-07T01:07:01.126Z,5.03
2017-10-07T01:09:29.482Z,3.12
2017-10-07T01:11:57.327Z,3.35
2017-10-07T01:14:25.507Z,3.15
2017-10-07T01:16:54.105Z,3.50
2017-10-07T01:19:22.374Z,3.58
2017-10-07T01:21:50.645Z,3.85
2017-10-07T01:24:18.912Z,3.70
2017-10-07T01:26:47.515Z,3.90
2017-10-07T01:29:15.575Z,4.32
2017-10-07T01:31:44.015Z,5.05
2017-10-07T01:34:12.190Z,4.25
2017-10-07T01:36:39.958Z,4.43
2017-10-07T01:39:08.419Z,5.65
2017-10-07T01:41:36.721Z,5.10
2017-10-07T01:44:04.533Z,5.00
2017-10-07T01:46:32.959Z,4.55
2017-10-07T01:49:00.556Z,3.95
2017-10-07T01:51:28.316Z,4.50
2017-10-07T01:53:56.183Z,6.15
2017-10-07T01:56:24.391Z,4.80
2017-10-07T01:58:52.227Z,4.25
2017-10-07T02:01:20.013Z,6.20
2017-10-07T02:03:48.312Z,5.35
2017-10-07T02:06:16.163Z,5.80
2017-10-07T02:08:44.366Z,5.80
2017-10-07T02:11:12.767Z,6.65
2017-10-07T02:13:40.583Z,6.30
2017-10-07T02:16:08.859Z,5.72
2017-10-07T02:18:36.814Z,6.40
2017-10-07T02:21:04.709Z,6.28
2017-10-07T02:23:33.248Z,6.57
2017-10-07T02:26:01.563Z,7.28
2017-10-07T02:28:29.722Z,6.62
2017-10-07T02:30:58.039Z,6.20
2017-10-07T02:33:26.640Z,6.35
2017-10-07T02:35:54.634Z,6.65
2017-10-07T02:38:23.009Z,6.30
2017-10-07T02:40:50.972Z,6.30
2017-10-07T02:43:19.002Z,6.15
2017-10-07T02:45:47.433Z,7.03
2017-10-07T02:48:15.595Z,5.78
2017-10-07T02:50:43.685Z,6.80
2017-10-07T02:53:12.181Z,7.70
2017-10-07T02:55:39.911Z,6.07
2017-10-07T02:58:07.767Z,6.70
2017-10-07T03:00:36.156Z,6.47
2017-10-07T03:03:04.035Z,7.37
2017-10-07T03:05:31.766Z,7.20
2017-10-07T03:08:00.123Z,7.80
2017-10-07T03:10:28.238Z,6.55
2017-10-07T03:12:56.203Z,6.62
2017-10-07T03:15:24.053Z,7.55
2017-10-07T03:17:51.766Z,9.18
2017-10-07T03:20:20.045Z,7.18
2017-10-07T03:22:48.558Z,6.60
2017-10-07T03:25:16.524Z,7.68
2017-10-07T03:27:44.760Z,7.30
2017-10-07T03:30:12.939Z,5.95
2017-10-07T03:32:41.102Z,7.12
2017-10-07T03:35:08.982Z,6.75
2017-10-07T03:37:37.389Z,6.65
2017-10-07T03:40:05.717Z,7.30
2017-10-07T03:42:33.805Z,6.80
2017-10-07T03:45:02.062Z,7.28
2017-10-07T03:47:30.623Z,7.28
2017-10-07T03:49:58.595Z,7.50
2017-10-07T03:52:26.777Z,7.12
2017-10-07T03:54:55.255Z,7.03
2017-10-07T03:57:23.050Z,8.38
2017-10-07T03:59:51.718Z,10.65
2017-10-07T04:02:20.094Z,7.30
2017-10-07T04:04:48.137Z,7.47
2017-10-07T04:07:16.396Z,8.30
2017-10-07T04:09:44.192Z,7.43
2017-10-07T04:12:11.858Z,11.02
2017-10-07T04:14:40.750Z,9.20
2017-10-07T04:17:09.455Z,6.80
2017-10-07T04:19:37.462Z,7.80
2017-10-07T04:22:06.171Z,8.20
2017-10-07T04:24:34.083Z,7.37
2017-10-07T04:27:02.122Z,6.78
2017-10-07T04:29:30.311Z,6.80
2017-10-07T04:31:58.242Z,8.13
2017-10-07T04:34:26.109Z,7.25
2017-10-07T04:36:54.236Z,7.47
2017-10-07T04:39:22.510Z,6.93
2017-10-07T04:41:50.097Z,6.40
2017-10-07T04:44:17.900Z,9.95
2017-10-07T04:46:45.488Z,6.75
2017-10-07T04:49:13.127Z,5.90
2017-10-07T04:51:41.628Z,6.55
2017-10-07T04:54:09.500Z,5.62
2017-10-07T04:56:37.615Z,6.68
2017-10-07T04:59:05.719Z,8.23
2017-10-07T05:01:33.611Z,7.00
2017-10-07T05:04:02.061Z,8.68
2017-10-07T05:06:30.261Z,6.37
2017-10-07T05:08:58.188Z,7.60
2017-10-07T05:11:25.979Z,5.85
2017-10-07T05:13:53.949Z,6.57
2017-10-07T05:16:21.724Z,7.18
2017-10-07T05:18:50.118Z,6.53
2017-10-07T05:21:18.326Z,6.05
2017-10-07T05:23:46.226Z,6.62
2017-10-07T05:26:14.311Z,6.12
2017-10-07T05:28:42.958Z,6.28
2017-10-07T05:31:10.705Z,5.60
2017-10-07T05:33:39.198Z,6.30
2017-10-07T05:36:07.224Z,6.57
2017-10-07T05:38:35.477Z,5.85
2017-10-07T05:41:03.243Z,6.57
2017-10-07T05:43:31.667Z,6.15
2017-10-07T05:45:59.909Z,7.03
2017-10-07T05:48:27.669Z,6.32
2017-10-07T05:50:55.787Z,6.53
2017-10-07T05:53:23.982Z,6.70
2017-10-07T05:55:53.141Z,6.50
2017-10-07T05:58:21.462Z,7.93
2017-10-07T06:00:49.646Z,6.40
2017-10-07T06:03:17.226Z,6.57
2017-10-07T06:05:45.632Z,6.00
2017-10-07T06:08:13.836Z,6.60
2017-10-07T06:10:41.983Z,6.15
2017-10-07T06:13:10.458Z,6.45
2017-10-07T06:15:38.346Z,5.82
2017-10-07T06:18:05.948Z,6.43
2017-10-07T06:20:33.699Z,6.47
2017-10-07T06:23:01.223Z,6.65
2017-10-07T06:25:28.739Z,8.65
2017-10-07T06:27:56.310Z,8.77
2017-10-07T06:30:23.834Z,7.22
2017-10-07T06:32:51.392Z,7.40
2017-10-07T06:35:19.358Z,8.85
2017-10-07T06:37:46.890Z,6.25
2017-10-07T06:40:14.407Z,7.43
2017-10-07T06:42:42.047Z,6.30
2017-10-07T06:45:09.613Z,5.10
2017-10-07T06:47:37.155Z,5.22
2017-10-07T06:50:05.138Z,6.70
2017-10-07T06:52:32.887Z,5.30
2017-10-07T06:55:00.430Z,5.07
2017-10-07T06:57:28.292Z,6.25
2017-10-07T06:59:56.023Z,6.40
2017-10-07T07:02:23.636Z,6.70
2017-10-07T07:04:51.195Z,5.72
2017-10-07T07:07:18.754Z,6.03
2017-10-07T07:09:46.423Z,6.93
2017-10-07T07:12:14.385Z,7.62
2017-10-07T07:14:41.943Z,6.93
2017-10-07T07:17:09.486Z,7.55
2017-10-07T07:19:37.277Z,6.97
2017-10-07T07:22:04.816Z,6.55
2017-10-07T07:24:32.383Z,6.20
2017-10-07T07:27:01.050Z,5.95
2017-10-07T07:29:28.623Z,5.47
2017-10-07T07:31:56.232Z,5.35
2017-10-07T07:34:23.788Z,5.25
2017-10-07T07:36:51.309Z,5.53
2017-10-07T07:39:18.865Z,5.45
2017-10-07T07:41:46.742Z,6.53
2017-10-07T07:44:14.614Z,4.50
2017-10-07T07:46:42.156Z,4.20
2017-10-07T07:49:09.921Z,5.45
2017-10-07T07:51:37.481Z,4.15
2017-10-07T07:54:05.044Z,4.30
2017-10-07T07:56:32.849Z,3.55
2017-10-07T07:59:00.370Z,3.30
2017-10-07T08:01:27.898Z,2.28
2017-10-07T08:03:56.504Z,3.03
2017-10-07T08:06:24.063Z,2.05
2017-10-07T08:08:51.723Z,2.67
2017-10-07T08:11:19.518Z,3.40
2017-10-07T08:13:47.047Z,2.07
2017-10-07T08:16:14.581Z,2.37
2017-10-07T08:18:42.406Z,2.57
2017-10-07T08:21:09.992Z,2.20
2017-10-07T08:23:37.562Z,5.60
2017-10-07T08:26:05.560Z,2.40
2017-10-07T08:28:33.128Z,3.27
2017-10-07T08:31:00.883Z,2.33
2017-10-07T08:33:28.647Z,2.17
2017-10-07T08:35:56.227Z,2.37
2017-10-07T08:38:23.852Z,2.57
2017-10-07T08:40:51.732Z,2.93
2017-10-07T08:43:19.344Z,1.90
2017-10-07T08:45:47.012Z,1.73
2017-10-07T08:48:14.730Z,2.90
2017-10-07T08:50:42.482Z,2.33
2017-10-07T08:53:10.086Z,2.20
2017-10-07T08:55:38.134Z,1.63
2017-10-07T08:58:05.884Z,2.47
2017-10-07T09:00:33.538Z,1.70
2017-10-07T09:03:01.301Z,1.70
2017-10-07T09:05:29.052Z,1.87
2017-10-07T09:07:56.670Z,2.30
2017-10-07T09:10:24.265Z,1.70
2017-10-07T09:12:51.988Z,1.60
2017-10-07T09:15:19.531Z,1.53
2017-10-07T09:17:47.269Z,1.90
2017-10-07T09:20:14.831Z,1.50
2017-10-07T09:22:42.396Z,1.50
2017-10-07T09:25:10.336Z,1.43
2017-10-07T09:27:37.853Z,1.60
2017-10-07T09:30:06.586Z,1.57
2017-10-07T09:32:34.367Z,1.33
2017-10-07T09:35:02.027Z,1.17
2017-10-07T09:37:29.773Z,0.80
2017-10-07T09:39:57.581Z,1.40
2017-10-07T09:42:26.279Z,1.40
2017-10-07T09:44:54.107Z,1.37
2017-10-07T09:47:21.870Z,1.27
2017-10-07T09:49:49.738Z,2.50
2017-10-07T09:52:17.464Z,2.20
2017-10-07T09:54:45.164Z,1.40
2017-10-07T09:57:12.824Z,2.20
2017-10-07T09:59:40.599Z,1.53
2017-10-07T10:02:08.492Z,2.70
2017-10-07T10:04:36.220Z,2.43
2017-10-07T10:07:03.879Z,1.37
2017-10-07T10:09:31.650Z,1.60
2017-10-07T10:11:59.205Z,2.53
2017-10-07T10:14:26.848Z,1.33
2017-10-07T10:16:54.934Z,2.37
2017-10-07T10:19:22.797Z,1.90
2017-10-07T10:21:50.360Z,1.40
2017-10-07T10:24:18.291Z,1.50
2017-10-07T10:26:45.888Z,1.90
2017-10-07T10:29:14.490Z,1.10
2017-10-07T10:31:42.235Z,1.67
2017-10-07T10:34:09.794Z,1.80
2017-10-07T10:36:37.378Z,2.10
2017-10-07T10:39:05.528Z,1.50
2017-10-07T10:41:33.190Z,1.50
2017-10-07T10:44:00.747Z,1.53
2017-10-07T10:46:28.813Z,1.50
2017-10-07T10:48:56.376Z,1.97
2017-10-07T10:51:23.938Z,1.90
2017-10-07T10:53:51.911Z,1.67
2017-10-07T10:56:19.550Z,1.10
2017-10-07T10:58:47.126Z,1.80
2017-10-07T11:01:14.825Z,1.23
2017-10-07T11:03:42.655Z,1.67
2017-10-07T11:06:10.226Z,1.23
2017-10-07T11:08:38.120Z,1.43
2017-10-07T11:11:05.636Z,1.67
2017-10-07T11:13:33.223Z,1.40
2017-10-07T11:16:01.376Z,1.37
2017-10-07T11:18:28.950Z,0.80
2017-10-07T11:20:56.473Z,1.40
2017-10-07T11:23:24.230Z,1.50
2017-10-07T11:25:51.739Z,1.50
2017-10-07T11:28:19.383Z,1.40
2017-10-07T11:30:47.182Z,1.47
2017-10-07T11:33:14.694Z,1.30
2017-10-07T11:35:42.326Z,1.43
2017-10-07T11:38:10.939Z,1.37
2017-10-07T11:40:38.602Z,1.10
2017-10-07T11:43:06.466Z,1.53
2017-10-07T11:45:34.257Z,1.40
2017-10-07T11:48:01.865Z,1.33
2017-10-07T11:50:29.630Z,1.87
2017-10-07T11:52:57.438Z,0.90
2017-10-07T11:55:25.049Z,1.60
2017-10-07T11:57:52.624Z,1.23
2017-10-07T12:00:20.416Z,1.30
2017-10-07T12:02:48.040Z,1.47
2017-10-07T12:05:16.219Z,1.20
2017-10-07T12:07:43.855Z,1.30
2017-10-07T12:10:11.561Z,1.20
2017-10-07T12:12:39.429Z,1.37
2017-10-07T12:15:07.192Z,1.23
2017-10-07T12:17:34.853Z,1.80
2017-10-07T12:20:02.515Z,1.50
2017-10-07T12:22:30.278Z,1.67
2017-10-07T12:24:57.807Z,1.00
2017-10-07T12:27:25.358Z,1.20
2017-10-07T12:29:53.062Z,2.30
2017-10-07T12:32:20.722Z,1.20
2017-10-07T12:34:48.394Z,1.80
2017-10-07T12:37:16.249Z,1.40
2017-10-07T12:39:43.918Z,1.00
2017-10-07T12:42:11.865Z,1.10
2017-10-07T12:44:39.745Z,1.17
2017-10-07T12:47:07.508Z,1.07
2017-10-07T12:49:35.044Z,1.30
2017-10-07T12:52:02.943Z,1.80
2017-10-07T12:54:30.699Z,1.57
2017-10-07T12:56:58.246Z,1.70
2017-10-07T12:59:26.226Z,1.87
2017-10-07T13:01:53.905Z,1.30
2017-10-07T13:04:21.468Z,1.17
2017-10-07T13:06:49.308Z,1.17
2017-10-07T13:09:16.927Z,1.67
2017-10-07T13:11:44.625Z,1.60
2017-10-07T13:14:12.219Z,2.30
2017-10-07T13:16:39.834Z,1.50
2017-10-07T13:19:07.518Z,2.20
2017-10-07T13:21:35.514Z,1.43
2017-10-07T13:24:03.046Z,1.37
2017-10-07T13:26:30.708Z,2.13
2017-10-07T13:28:58.572Z,1.90
2017-10-07T13:31:26.133Z,1.70
2017-10-07T13:33:53.756Z,1.53
2017-10-07T13:36:21.454Z,1.70
2017-10-07T13:38:49.014Z,1.60
2017-10-07T13:41:16.697Z,1.47
2017-10-07T13:43:44.440Z,1.27
2017-10-07T13:46:12.000Z,1.83
2017-10-07T13:48:39.557Z,2.20
2017-10-07T13:51:07.424Z,1.50
2017-10-07T13:53:35.069Z,1.60
2017-10-07T13:56:02.746Z,1.43
2017-10-07T13:58:30.464Z,1.73
2017-10-07T14:00:58.172Z,1.80
2017-10-07T14:03:26.894Z,2.00
2017-10-07T14:05:54.930Z,1.80
2017-10-07T14:08:22.888Z,2.13
2017-10-07T14:10:50.559Z,2.13
2017-10-07T14:13:19.273Z,1.60
2017-10-07T14:15:47.020Z,2.03
2017-10-07T14:18:14.876Z,2.17
2017-10-07T14:20:42.770Z,1.67
2017-10-07T14:23:10.508Z,1.83
2017-10-07T14:25:38.168Z,1.93
2017-10-07T14:28:06.034Z,1.90
2017-10-07T14:30:33.677Z,1.73
2017-10-07T14:33:01.220Z,1.77
2017-10-07T14:35:28.822Z,1.43
2017-10-07T14:37:56.339Z,1.60
2017-10-07T14:40:23.865Z,1.23
2017-10-07T14:42:51.783Z,1.97
2017-10-07T14:45:19.459Z,1.57
2017-10-07T14:47:47.017Z,1.73
2017-10-07T14:50:14.921Z,2.27
2017-10-07T14:52:42.479Z,1.97
2017-10-07T14:55:10.028Z,1.70
2017-10-07T14:57:38.903Z,1.40
2017-10-07T15:00:06.712Z,1.83
2017-10-07T15:02:34.330Z,1.57
2017-10-07T15:05:02.801Z,1.63
2017-10-07T15:07:30.357Z,1.57
2017-10-07T15:09:57.947Z,1.40
2017-10-07T15:12:25.681Z,2.60
2017-10-07T15:14:54.265Z,2.60
2017-10-07T15:17:21.925Z,2.50
2017-10-07T15:19:49.821Z,2.47
2017-10-07T15:22:17.455Z,2.33
2017-10-07T15:24:45.183Z,1.70
2017-10-07T15:27:13.301Z,1.50
2017-10-07T15:29:41.564Z,1.60
2017-10-07T15:32:09.178Z,1.20
2017-10-07T15:34:37.194Z,1.60
2017-10-07T15:37:04.756Z,1.60
2017-10-07T15:39:32.757Z,2.00
2017-10-07T15:42:00.948Z,1.83
2017-10-07T15:44:29.663Z,2.63
2017-10-07T15:46:57.508Z,1.87
2017-10-07T15:49:25.325Z,1.50
2017-10-07T15:51:52.873Z,1.53
2017-10-07T15:54:20.459Z,2.47
2017-10-07T15:56:48.306Z,2.50
2017-10-07T15:59:15.900Z,2.23
2017-10-07T16:01:43.784Z,2.17
2017-10-07T16:04:11.777Z,2.13
2017-10-07T16:06:39.295Z,2.30
2017-10-07T16:09:06.829Z,1.93
2017-10-07T16:11:34.774Z,1.30
2017-10-07T16:14:02.582Z,1.77
2017-10-07T16:16:30.213Z,2.53
2017-10-07T16:18:58.004Z,2.30
2017-10-07T16:21:25.545Z,1.70
2017-10-07T16:23:53.116Z,1.90
2017-10-07T16:26:21.059Z,1.40
2017-10-07T16:28:48.716Z,1.73
2017-10-07T16:31:16.501Z,1.80
2017-10-07T16:33:44.146Z,1.80
2017-10-07T16:36:11.737Z,2.50
2017-10-07T16:38:39.299Z,2.30
2017-10-07T16:41:08.345Z,1.97
2017-10-07T16:43:35.943Z,2.73
2017-10-07T16:46:03.455Z,2.20
2017-10-07T16:48:31.323Z,1.93
2017-10-07T16:50:59.105Z,1.70
2017-10-07T16:53:26.788Z,2.13
2017-10-07T16:55:54.633Z,2.10
2017-10-07T16:58:22.498Z,2.47
2017-10-07T17:00:50.161Z,2.70
2017-10-07T17:03:17.822Z,2.20
2017-10-07T17:05:45.474Z,2.17
2017-10-07T17:08:13.149Z,3.20
2017-10-07T17:10:41.034Z,2.80
2017-10-07T17:13:08.571Z,2.83
2017-10-07T17:15:36.137Z,2.30
2017-10-07T17:18:03.995Z,2.50
2017-10-07T17:20:31.866Z,3.03
2017-10-07T17:22:59.386Z,2.47
2017-10-07T17:25:27.296Z,2.62
2017-10-07T17:27:54.846Z,3.33
2017-10-07T17:30:22.393Z,4.40
2017-10-07T17:32:50.682Z,2.12
2017-10-07T17:35:18.255Z,2.80
2017-10-07T17:37:45.903Z,2.40
2017-10-07T17:40:13.783Z,2.70
2017-10-07T17:42:41.358Z,2.60
2017-10-07T17:45:09.399Z,2.43
2017-10-07T17:47:37.163Z,2.93
2017-10-07T17:50:04.822Z,2.80
2017-10-07T17:52:32.606Z,3.20
2017-10-07T17:55:01.304Z,3.37
2017-10-07T17:57:29.140Z,2.33
2017-10-07T17:59:56.904Z,2.27
2017-10-07T18:02:25.295Z,6.20
2017-10-07T18:04:53.158Z,28.90
2017-10-07T18:07:21.015Z,9.87
2017-10-07T18:09:48.880Z,3.10
2017-10-07T18:12:17.680Z,3.10
2017-10-07T18:14:45.561Z,2.40
2017-10-07T18:17:13.542Z,2.63
2017-10-07T18:19:41.202Z,2.53
2017-10-07T18:22:08.933Z,2.87
2017-10-07T18:24:36.796Z,2.53
2017-10-07T18:27:04.458Z,2.77
2017-10-07T18:29:32.425Z,3.03
2017-10-07T18:32:00.235Z,3.77
2017-10-07T18:34:27.872Z,3.17
2017-10-07T18:36:55.521Z,2.70
2017-10-07T18:39:23.672Z,3.40
2017-10-07T18:41:51.764Z,3.60
2017-10-07T18:44:19.534Z,3.77
2017-10-07T18:46:47.858Z,3.00
2017-10-07T18:49:15.561Z,3.80
2017-10-07T18:51:43.428Z,3.93
2017-10-07T18:54:11.191Z,4.50
2017-10-07T18:56:38.853Z,3.37
2017-10-07T18:59:06.440Z,4.10
2017-10-07T19:01:34.184Z,3.40
2017-10-07T19:04:01.736Z,3.50
2017-10-07T19:06:29.294Z,2.83
2017-10-07T19:08:57.184Z,2.60
2017-10-07T19:11:25.027Z,2.90
2017-10-07T19:13:53.507Z,2.62
2017-10-07T19:16:21.580Z,2.05
2017-10-07T19:18:49.180Z,2.10
2017-10-07T19:21:16.917Z,3.65
2017-10-07T19:23:44.774Z,2.08
2017-10-07T19:26:12.531Z,2.95
2017-10-07T19:28:40.149Z,3.12
2017-10-07T19:31:08.162Z,2.97
2017-10-07T19:33:35.825Z,5.15
2017-10-07T19:36:03.499Z,2.90
2017-10-07T19:38:31.311Z,3.40
2017-10-07T19:40:58.905Z,3.03
2017-10-07T19:43:26.675Z,3.30
2017-10-07T19:45:54.541Z,3.42
2017-10-07T19:48:22.980Z,2.92
2017-10-07T19:50:50.637Z,3.58
2017-10-07T19:53:18.661Z,3.70
2017-10-07T19:55:46.551Z,5.82
2017-10-07T19:58:14.185Z,5.50
2017-10-07T20:00:41.794Z,3.10
2017-10-07T20:03:09.606Z,2.80
2017-10-07T20:05:37.196Z,3.00
2017-10-07T20:08:05.018Z,2.97
2017-10-07T20:10:32.530Z,2.40
2017-10-07T20:13:00.456Z,2.75
2017-10-07T20:15:28.225Z,2.53
2017-10-07T20:17:55.807Z,2.10
2017-10-07T20:20:23.543Z,4.12
2017-10-07T20:22:51.203Z,3.17
2017-10-07T20:25:18.777Z,2.83
2017-10-07T20:27:46.362Z,2.60
2017-10-07T20:30:14.313Z,2.55
2017-10-07T20:32:41.862Z,3.28
2017-10-07T20:35:10.331Z,3.50
2017-10-07T20:37:38.094Z,3.33
2017-10-07T20:40:05.654Z,4.22
2017-10-07T20:42:33.244Z,3.03
2017-10-07T20:45:01.387Z,2.87
2017-10-07T20:47:29.110Z,2.87
2017-10-07T20:49:56.641Z,2.28
2017-10-07T20:52:24.678Z,5.85
2017-10-07T20:54:52.236Z,4.05
2017-10-07T20:57:19.900Z,6.00
2017-10-07T20:59:47.814Z,6.40
2017-10-07T21:02:15.330Z,5.40
2017-10-07T21:04:42.883Z,4.75
2017-10-07T21:07:10.852Z,2.25
2017-10-07T21:09:38.412Z,1.48
2017-10-07T21:12:05.971Z,1.33
2017-10-07T21:14:33.701Z,1.50
2017-10-07T21:17:01.280Z,2.42
2017-10-07T21:19:29.074Z,2.25
2017-10-07T21:21:56.853Z,2.62
2017-10-07T21:24:24.482Z,2.35
2017-10-07T21:26:52.225Z,2.17
2017-10-07T21:29:19.765Z,2.95
2017-10-07T21:31:47.287Z,2.95
2017-10-07T21:34:14.821Z,3.05
2017-10-07T21:36:42.557Z,3.08
2017-10-07T21:39:10.231Z,2.08
2017-10-07T21:41:37.753Z,2.45
2017-10-07T21:44:05.570Z,2.10
2017-10-07T21:46:33.086Z,1.40
2017-10-07T21:49:00.603Z,1.92
2017-10-07T21:51:28.248Z,2.35
2017-10-07T21:53:55.767Z,1.60
2017-10-07T21:56:23.282Z,2.10
2017-10-07T21:58:51.005Z,1.55
2017-10-07T22:01:18.530Z,1.75
2017-10-07T22:03:46.042Z,1.55
2017-10-07T22:06:13.729Z,1.60
2017-10-07T22:08:41.294Z,1.45
2017-10-07T22:11:08.831Z,1.20
2017-10-07T22:13:36.602Z,2.08
2017-10-07T22:16:04.157Z,1.40
2017-10-07T22:18:31.705Z,2.10
2017-10-07T22:20:59.263Z,1.48
2017-10-07T22:23:26.774Z,2.00
2017-10-07T22:25:55.203Z,1.90
2017-10-07T22:28:22.782Z,1.85
2017-10-07T22:30:50.331Z,1.83
2017-10-07T22:33:17.880Z,1.87
2017-10-07T22:35:45.662Z,1.60
2017-10-07T22:38:13.208Z,1.90
2017-10-07T22:40:40.724Z,2.10
2017-10-07T22:43:08.415Z,1.62
2017-10-07T22:45:35.930Z,1.80
2017-10-07T22:48:03.451Z,1.15
2017-10-07T22:50:31.386Z,1.87
2017-10-07T22:52:58.998Z,1.90
2017-10-07T22:55:26.576Z,1.20
2017-10-07T22:57:54.289Z,1.37
2017-10-07T23:00:21.798Z,1.48
2017-10-07T23:02:49.324Z,1.55
2017-10-07T23:05:16.870Z,1.80
2017-10-07T23:07:44.383Z,1.30
2017-10-07T23:10:11.898Z,1.30
2017-10-07T23:12:39.450Z,1.40
2017-10-07T23:15:06.977Z,1.10
2017-10-07T23:17:34.559Z,1.15
2017-10-07T23:20:02.506Z,1.35
2017-10-07T23:22:33.971Z,1.20
2017-10-07T23:25:01.535Z,1.30
2017-10-07T23:27:29.093Z,2.50
2017-10-07T23:29:56.608Z,1.20
2017-10-07T23:32:24.519Z,1.50
2017-10-07T23:34:52.074Z,1.65
2017-10-07T23:37:19.583Z,1.67
2017-10-07T23:39:47.502Z,2.08
2017-10-07T23:42:15.078Z,1.50
2017-10-07T23:44:42.622Z,2.20
2017-10-07T23:47:10.214Z,1.52
2017-10-07T23:49:37.739Z,1.50
2017-10-07T23:52:05.251Z,1.50
2017-10-07T23:54:33.062Z,2.40
2017-10-07T23:57:00.570Z,1.77
2017-10-07T23:59:28.086Z,2.10
